Time;durP1;ratioP1;P1;durP2;ratioP2;P2;SDS_P1;SDS_P2;PMS_P1;PMS_P2;Temp;Humidity;BMP_temperature;BMP_pressure;BME280_temperature;BME280_humidity;BME280_pressure;Samples;Min_cycle;Max_cycle;Signal;HPM_P1;HPM_P2
2023/07/30 00:02:25;;;;;;;8.75;2.90;;;16.10;99.90;;;;;;4846260;29;20120;-92
2023/07/30 00:04:50;;;;;;;9.35;3.38;;;16.10;99.90;;;;;;4821565;29;20124;-92
2023/07/30 00:07:16;;;;;;;7.45;2.70;;;16.30;99.90;;;;;;4840688;29;20098;-91
2023/07/30 00:09:42;;;;;;;8.15;2.70;;;16.20;99.90;;;;;;4848562;29;20056;-92
2023/07/30 00:12:09;;;;;;;6.50;3.15;;;16.30;99.90;;;;;;4845504;29;20041;-92
2023/07/30 00:14:35;;;;;;;7.03;2.65;;;16.30;99.90;;;;;;4839612;29;20100;-92
2023/07/30 00:17:02;;;;;;;8.88;2.88;;;16.10;99.90;;;;;;4827607;29;20050;-92
2023/07/30 00:19:28;;;;;;;7.28;2.92;;;16.30;99.90;;;;;;4842245;29;20109;-91
2023/07/30 00:21:53;;;;;;;9.35;3.30;;;16.30;99.90;;;;;;4828901;29;20049;-93
2023/07/30 00:24:24;;;;;;;8.70;3.00;;;16.30;99.90;;;;;;4828453;29;20508;-92
2023/07/30 00:26:53;;;;;;;11.80;3.13;;;16.30;99.90;;;;;;4837581;29;20045;-92
2023/07/30 00:29:19;;;;;;;9.60;3.15;;;16.30;99.90;;;;;;4845105;29;20060;-92
2023/07/30 00:32:46;;;;;;;6.63;2.60;;;16.30;99.90;;;;;;4846020;29;20079;-92
2023/07/30 00:35:40;;;;;;;8.75;2.92;;;16.30;99.90;;;;;;4818085;29;20065;-92
2023/07/30 00:38:08;;;;;;;7.78;3.05;;;16.30;99.90;;;;;;4811584;29;20057;-92
2023/07/30 00:40:41;;;;;;;8.45;2.95;;;16.20;99.90;;;;;;4824068;29;20057;-92
2023/07/30 00:43:07;;;;;;;7.70;2.78;;;16.30;99.90;;;;;;4834771;29;20053;-92
2023/07/30 00:45:33;;;;;;;7.80;3.45;;;16.20;99.90;;;;;;4820701;29;20045;-92
2023/07/30 00:47:59;;;;;;;11.35;3.60;;;16.20;99.90;;;;;;4845891;29;20045;-92
2023/07/30 00:50:30;;;;;;;8.23;2.85;;;16.20;99.90;;;;;;4845553;29;20702;-92
2023/07/30 00:52:56;;;;;;;5.15;2.58;;;16.20;99.90;;;;;;4835907;29;20041;-92
2023/07/30 00:55:22;;;;;;;6.25;2.65;;;16.20;99.90;;;;;;4845322;29;20048;-92
2023/07/30 00:57:48;;;;;;;8.02;2.88;;;16.10;99.90;;;;;;4846203;29;20053;-92
2023/07/30 01:00:14;;;;;;;6.97;3.13;;;16.10;99.90;;;;;;4842749;29;20037;-92
2023/07/30 01:02:40;;;;;;;7.53;3.17;;;16.10;99.90;;;;;;4845580;29;20098;-92
2023/07/30 01:05:06;;;;;;;8.63;3.00;;;16.10;99.90;;;;;;4829770;29;20478;-93
2023/07/30 01:07:33;;;;;;;5.97;2.65;;;16.10;99.90;;;;;;4844945;29;20541;-92
2023/07/30 01:10:00;;;;;;;6.43;2.55;;;16.10;99.90;;;;;;4844849;29;20050;-91
2023/07/30 01:12:28;;;;;;;7.55;2.80;;;16.10;99.90;;;;;;4842562;29;20423;-92
2023/07/30 01:14:55;;;;;;;15.13;4.07;;;16.10;99.90;;;;;;4837178;29;20051;-92
2023/07/30 01:17:22;;;;;;;6.35;2.75;;;16.10;99.90;;;;;;4845024;29;20696;-89
2023/07/30 01:19:57;;;;;;;11.38;3.40;;;16.00;99.90;;;;;;4840583;29;20055;-92
2023/07/30 01:22:23;;;;;;;6.20;3.03;;;16.00;99.90;;;;;;4842994;29;20340;-92
2023/07/30 01:24:49;;;;;;;7.13;2.53;;;16.00;99.90;;;;;;4842651;29;20053;-92
2023/07/30 01:27:28;;;;;;;9.55;2.75;;;16.10;99.90;;;;;;4843916;29;20037;-91
2023/07/30 01:30:08;;;;;;;8.00;2.90;;;16.10;99.90;;;;;;4845516;29;20498;-92
2023/07/30 01:32:34;;;;;;;7.88;2.67;;;16.10;99.90;;;;;;4846091;29;20097;-91
2023/07/30 01:35:02;;;;;;;5.72;2.60;;;15.90;99.90;;;;;;4826176;29;20045;-92
2023/07/30 01:37:29;;;;;;;6.63;2.30;;;16.10;99.90;;;;;;4844757;29;20502;-91
2023/07/30 01:39:55;;;;;;;;;;;16.10;99.90;;;;;;4841858;29;20045;-91
2023/07/30 01:42:28;;;;;;;7.00;2.40;;;16.10;99.90;;;;;;4839628;29;19920;-91
2023/07/30 01:44:54;;;;;;;6.95;2.60;;;16.20;99.90;;;;;;4848081;29;20046;-91
2023/07/30 01:47:20;;;;;;;5.45;2.35;;;16.20;99.90;;;;;;4845085;29;20056;-91
2023/07/30 01:49:45;;;;;;;5.88;2.42;;;16.20;99.90;;;;;;4829328;29;20080;-92
2023/07/30 01:52:11;;;;;;;6.35;2.15;;;16.20;99.90;;;;;;4844510;29;20041;-92
2023/07/30 01:54:37;;;;;;;9.48;3.05;;;16.30;99.90;;;;;;4826150;29;20144;-92
2023/07/30 01:57:03;;;;;;;8.00;2.85;;;16.20;99.90;;;;;;4829661;29;20045;-91
2023/07/30 01:59:29;;;;;;;9.40;3.05;;;16.30;99.90;;;;;;4844885;29;20041;-92
2023/07/30 02:01:55;;;;;;;8.95;2.47;;;16.30;99.90;;;;;;4825263;29;20064;-92
2023/07/30 02:04:20;;;;;;;7.22;2.92;;;16.30;99.90;;;;;;4828659;29;20046;-92
2023/07/30 02:06:46;;;;;;;8.65;2.80;;;16.30;99.90;;;;;;4842287;29;20056;-94
2023/07/30 02:09:15;;;;;;;7.55;2.58;;;16.30;99.90;;;;;;4828357;29;20101;-94
2023/07/30 02:11:41;;;;;;;7.13;2.70;;;16.30;99.90;;;;;;4844040;29;20053;-93
2023/07/30 02:14:06;;;;;;;9.10;2.60;;;16.30;99.90;;;;;;4842487;29;20056;-94
2023/07/30 02:16:32;;;;;;;7.72;3.00;;;16.30;99.90;;;;;;4823937;29;20044;-94
2023/07/30 02:18:58;;;;;;;8.18;2.53;;;16.40;99.90;;;;;;4836700;29;20063;-95
2023/07/30 02:21:24;;;;;;;7.15;3.20;;;16.70;99.90;;;;;;4832639;29;20037;-92
2023/07/30 02:23:50;;;;;;;9.57;2.90;;;16.30;99.90;;;;;;4842823;29;20041;-93
2023/07/30 02:26:15;;;;;;;6.20;2.47;;;16.40;99.90;;;;;;4827115;29;20410;-92
2023/07/30 02:28:41;;;;;;;8.52;2.95;;;16.40;99.90;;;;;;4843800;29;20466;-92
2023/07/30 02:31:07;;;;;;;11.65;2.75;;;16.40;99.90;;;;;;4844008;29;20124;-92
2023/07/30 02:33:33;;;;;;;9.50;2.70;;;16.40;99.90;;;;;;4842740;29;20477;-92
2023/07/30 02:36:06;;;;;;;9.07;2.78;;;16.20;99.90;;;;;;4834051;29;20045;-92
2023/07/30 02:38:32;;;;;;;10.18;2.88;;;16.40;99.90;;;;;;4843882;29;20477;-92
2023/07/30 02:40:58;;;;;;;11.77;3.47;;;16.40;99.90;;;;;;4817231;29;20049;-92
2023/07/30 02:43:24;;;;;;;9.27;3.22;;;16.40;99.90;;;;;;4840371;29;20045;-92
2023/07/30 02:45:50;;;;;;;11.30;3.05;;;16.40;99.90;;;;;;4843197;29;20417;-92
2023/07/30 02:48:15;;;;;;;11.07;3.15;;;16.40;99.90;;;;;;4841790;29;20057;-91
2023/07/30 02:50:41;;;;;;;11.05;3.20;;;16.40;99.90;;;;;;4844718;29;20064;-91
2023/07/30 02:53:07;;;;;;;8.50;3.05;;;16.40;99.90;;;;;;4843291;29;20533;-91
2023/07/30 02:55:33;;;;;;;8.07;2.58;;;16.40;99.90;;;;;;4843534;29;20398;-91
2023/07/30 02:57:59;;;;;;;9.70;2.40;;;16.40;99.90;;;;;;4828507;29;20053;-92
2023/07/30 03:00:25;;;;;;;6.45;2.55;;;16.40;99.90;;;;;;4844309;29;20045;-93
2023/07/30 03:02:50;;;;;;;8.90;2.80;;;16.30;99.90;;;;;;4823609;29;20045;-91
2023/07/30 03:05:16;;;;;;;9.48;3.40;;;16.40;99.90;;;;;;4826871;29;20052;-92
2023/07/30 03:07:42;;;;;;;9.25;2.65;;;16.40;99.90;;;;;;4841981;29;20075;-91
2023/07/30 03:10:08;;;;;;;11.63;3.20;;;16.30;99.90;;;;;;4828316;29;20045;-92
2023/07/30 03:12:34;;;;;;;12.05;3.25;;;16.30;99.90;;;;;;4829000;29;20041;-91
2023/07/30 03:15:00;;;;;;;8.45;3.20;;;16.30;99.90;;;;;;4830006;29;20502;-91
2023/07/30 03:17:26;;;;;;;8.88;2.90;;;16.30;99.90;;;;;;4845969;29;20123;-92
2023/07/30 03:19:51;;;;;;;10.52;2.83;;;16.20;99.90;;;;;;4828849;29;20050;-92
2023/07/30 03:22:17;;;;;;;7.72;2.75;;;16.30;99.90;;;;;;4835852;29;20102;-92
2023/07/30 03:24:46;;;;;;;8.73;2.70;;;16.20;99.90;;;;;;4843379;29;20049;-92
2023/07/30 03:27:12;;;;;;;10.80;2.63;;;16.20;99.90;;;;;;4842721;29;20041;-92
2023/07/30 03:29:37;;;;;;;7.88;2.75;;;16.20;99.90;;;;;;4843928;29;20051;-92
2023/07/30 03:32:03;;;;;;;10.68;2.85;;;16.20;99.90;;;;;;4825773;29;20194;-91
2023/07/30 03:34:29;;;;;;;8.63;2.40;;;16.20;99.90;;;;;;4845500;29;20050;-92
2023/07/30 03:36:55;;;;;;;8.35;2.80;;;16.30;99.90;;;;;;4847469;29;20057;-91
2023/07/30 03:39:21;;;;;;;8.75;3.00;;;16.10;99.90;;;;;;4845637;29;20566;-92
2023/07/30 03:41:46;;;;;;;10.82;2.60;;;16.10;99.90;;;;;;4838864;29;20038;-92
2023/07/30 03:44:12;;;;;;;10.00;3.10;;;16.00;99.90;;;;;;4842937;29;20098;-92
2023/07/30 03:46:43;;;;;;;8.10;2.40;;;16.00;99.90;;;;;;4861494;29;20092;-91
2023/07/30 03:49:09;;;;;;;12.45;3.55;;;16.00;99.90;;;;;;4847488;29;20041;-92
2023/07/30 03:51:35;;;;;;;8.82;2.63;;;16.00;99.90;;;;;;4847427;29;20056;-92
2023/07/30 03:54:00;;;;;;;9.25;2.83;;;16.00;99.90;;;;;;4812157;29;20046;-92
2023/07/30 03:56:26;;;;;;;10.10;2.70;;;16.00;99.90;;;;;;4847034;29;20063;-93
2023/07/30 03:58:52;;;;;;;6.60;2.75;;;15.90;99.90;;;;;;4845508;29;20114;-92
2023/07/30 04:01:18;;;;;;;7.15;2.42;;;16.00;99.90;;;;;;4828298;29;20081;-92
2023/07/30 04:03:44;;;;;;;11.02;3.38;;;15.90;99.90;;;;;;4845855;29;20052;-92
2023/07/30 04:06:09;;;;;;;7.93;2.85;;;15.90;99.90;;;;;;4846760;29;20569;-91
2023/07/30 04:08:35;;;;;;;8.93;2.88;;;15.90;99.90;;;;;;4846105;29;20056;-92
2023/07/30 04:11:01;;;;;;;6.85;2.20;;;15.90;99.90;;;;;;4846966;29;20045;-92
2023/07/30 04:13:27;;;;;;;8.68;2.70;;;15.90;99.90;;;;;;4846266;29;20049;-92
2023/07/30 04:15:53;;;;;;;8.88;2.25;;;15.60;99.90;;;;;;4846977;29;20052;-92
2023/07/30 04:18:19;;;;;;;9.20;2.10;;;15.90;99.90;;;;;;4841595;29;20118;-92
2023/07/30 04:20:45;;;;;;;8.02;2.80;;;15.90;99.90;;;;;;4813719;29;20034;-92
2023/07/30 04:23:11;;;;;;;10.57;2.85;;;15.90;99.90;;;;;;4830397;29;20137;-92
2023/07/30 04:25:37;;;;;;;10.52;2.88;;;15.90;99.90;;;;;;4846286;29;20045;-91
2023/07/30 04:28:03;;;;;;;8.93;2.67;;;15.90;99.90;;;;;;4843606;29;20041;-92
2023/07/30 04:30:29;;;;;;;9.05;2.67;;;16.00;99.90;;;;;;4830349;29;20049;-92
2023/07/30 04:32:54;;;;;;;7.10;2.47;;;16.00;99.90;;;;;;4847761;29;20128;-92
2023/07/30 04:35:20;;;;;;;9.43;2.15;;;16.10;99.90;;;;;;4845783;29;20048;-92
2023/07/30 04:37:46;;;;;;;8.57;2.55;;;16.10;99.90;;;;;;4830314;29;20523;-92
2023/07/30 04:40:12;;;;;;;9.30;2.70;;;16.10;99.90;;;;;;4830845;29;20470;-91
2023/07/30 04:42:38;;;;;;;8.75;2.22;;;16.10;99.90;;;;;;4846882;29;20097;-92
2023/07/30 04:45:07;;;;;;;7.00;2.47;;;15.90;99.90;;;;;;4827640;29;20050;-92
2023/07/30 04:47:33;;;;;;;5.50;2.22;;;15.70;99.90;;;;;;4827465;29;20041;-92
2023/07/30 04:49:58;;;;;;;7.10;1.95;;;16.20;99.90;;;;;;4845948;29;20052;-91
2023/07/30 04:52:24;;;;;;;9.32;2.67;;;16.30;99.90;;;;;;4844839;29;20045;-91
2023/07/30 04:54:50;;;;;;;6.80;2.50;;;16.30;99.90;;;;;;4830222;29;20050;-93
2023/07/30 04:57:16;;;;;;;8.43;2.28;;;16.40;99.90;;;;;;4845988;29;20129;-90
2023/07/30 04:59:41;;;;;;;9.80;2.67;;;16.60;99.90;;;;;;4845790;29;20150;-91
2023/07/30 05:02:07;;;;;;;7.00;1.98;;;16.70;99.90;;;;;;4815241;29;20046;-91
2023/07/30 05:04:33;;;;;;;9.18;2.70;;;16.90;99.90;;;;;;4814886;29;20472;-92
2023/07/30 05:06:59;;;;;;;11.05;2.20;;;16.90;99.90;;;;;;4845913;29;20132;-92
2023/07/30 05:09:24;;;;;;;8.00;2.80;;;16.90;99.90;;;;;;4829750;29;20097;-92
2023/07/30 05:11:50;;;;;;;6.10;1.90;;;17.00;99.90;;;;;;4829393;29;20045;-92
2023/07/30 05:14:16;;;;;;;7.00;2.13;;;17.20;99.90;;;;;;4845151;29;20076;-92
2023/07/30 05:16:42;;;;;;;6.07;2.38;;;16.90;99.90;;;;;;4827315;29;20057;-93
2023/07/30 05:19:08;;;;;;;7.78;2.00;;;16.90;99.90;;;;;;4843454;29;20105;-91
2023/07/30 05:21:34;;;;;;;5.50;1.98;;;16.90;99.90;;;;;;4845332;29;20053;-91
2023/07/30 05:24:02;;;;;;;6.65;2.13;;;17.00;99.90;;;;;;4844313;29;20117;-92
2023/07/30 05:26:28;;;;;;;5.75;2.00;;;17.10;99.90;;;;;;4858888;29;20045;-92
2023/07/30 05:28:54;;;;;;;6.70;1.95;;;17.00;99.90;;;;;;4829643;29;20045;-91
2023/07/30 05:31:19;;;;;;;8.48;1.98;;;17.00;99.90;;;;;;4830022;29;20477;-94
2023/07/30 05:33:45;;;;;;;7.78;1.90;;;17.00;99.90;;;;;;4845017;29;20050;-93
2023/07/30 05:36:11;;;;;;;8.13;2.05;;;17.00;99.90;;;;;;4828622;29;20049;-92
2023/07/30 05:38:36;;;;;;;7.68;1.83;;;17.00;99.90;;;;;;4814241;29;20046;-93
2023/07/30 05:41:02;;;;;;;6.60;1.60;;;17.00;99.90;;;;;;4822596;29;20093;-92
2023/07/30 05:43:28;;;;;;;7.55;2.45;;;17.00;99.90;;;;;;4830587;29;20564;-91
2023/07/30 05:45:54;;;;;;;6.30;1.80;;;17.00;99.90;;;;;;4844637;29;20056;-92
2023/07/30 05:48:20;;;;;;;8.55;2.00;;;17.10;99.90;;;;;;4844438;29;20056;-92
2023/07/30 05:50:48;;;;;;;5.45;1.80;;;17.10;99.90;;;;;;4843626;29;20052;-92
2023/07/30 05:53:14;;;;;;;6.60;2.17;;;17.30;99.90;;;;;;4828836;29;20105;-92
2023/07/30 05:55:40;;;;;;;6.30;1.48;;;17.40;99.90;;;;;;4829303;29;20141;-92
2023/07/30 05:58:06;;;;;;;4.70;1.85;;;17.50;99.90;;;;;;4841448;29;20638;-92
2023/07/30 06:00:32;;;;;;;4.88;1.42;;;17.50;99.90;;;;;;4843317;29;20081;-92
2023/07/30 06:02:57;;;;;;;6.80;2.10;;;17.50;99.90;;;;;;4826453;29;20050;-91
2023/07/30 06:05:23;;;;;;;5.38;1.60;;;17.50;99.90;;;;;;4842340;29;20043;-92
2023/07/30 06:07:49;;;;;;;7.63;1.63;;;17.40;99.90;;;;;;4827880;29;20041;-91
2023/07/30 06:10:15;;;;;;;5.28;1.58;;;17.50;99.90;;;;;;4828510;29;20145;-92
2023/07/30 06:12:40;;;;;;;13.15;3.00;;;17.50;99.90;;;;;;4828901;29;20683;-92
2023/07/30 06:15:08;;;;;;;6.47;2.20;;;17.50;99.90;;;;;;4828933;29;20064;-91
2023/07/30 06:17:34;;;;;;;6.30;1.48;;;17.40;99.90;;;;;;4820981;29;20061;-92
2023/07/30 06:20:00;;;;;;;6.13;1.75;;;17.50;99.90;;;;;;4818779;29;20042;-92
2023/07/30 06:22:26;;;;;;;4.57;1.58;;;17.50;99.90;;;;;;4833989;29;20444;-93
2023/07/30 06:24:52;;;;;;;7.00;1.70;;;17.50;99.90;;;;;;4809593;29;20058;-94
2023/07/30 06:27:17;;;;;;;5.82;1.58;;;17.50;99.90;;;;;;4836433;29;20137;-93
2023/07/30 06:29:43;;;;;;;4.80;1.90;;;17.60;99.90;;;;;;4813880;29;20049;-93
2023/07/30 06:32:09;;;;;;;5.20;1.75;;;17.60;99.90;;;;;;4828978;29;20057;-95
2023/07/30 06:34:34;;;;;;;5.95;1.85;;;17.50;99.90;;;;;;4838722;29;20491;-93
2023/07/30 06:37:00;;;;;;;6.88;1.83;;;17.50;99.90;;;;;;4813870;29;20398;-92
2023/07/30 06:40:07;;;;;;;3.78;1.17;;;17.60;99.90;;;;;;4837568;29;20033;-94
2023/07/30 06:42:38;;;;;;;7.18;1.85;;;17.60;99.90;;;;;;4835243;29;20045;-94
2023/07/30 06:45:08;;;;;;;6.03;2.00;;;17.50;99.90;;;;;;4834830;29;20046;-94
2023/07/30 06:47:36;;;;;;;4.50;1.30;;;17.50;99.90;;;;;;4828137;29;20081;-94
2023/07/30 06:50:02;;;;;;;7.00;1.33;;;17.60;99.90;;;;;;4833559;29;20049;-91
2023/07/30 06:52:28;;;;;;;6.50;1.80;;;17.70;99.90;;;;;;4842888;29;20081;-93
2023/07/30 06:54:56;;;;;;;6.40;1.50;;;17.80;99.90;;;;;;4835729;29;20082;-91
2023/07/30 06:57:22;;;;;;;6.32;1.70;;;17.80;99.90;;;;;;4838541;29;20482;-91
2023/07/30 06:59:48;;;;;;;4.78;1.73;;;17.90;99.90;;;;;;4827216;29;20064;-92
2023/07/30 07:02:16;;;;;;;6.07;1.95;;;18.00;99.90;;;;;;4840336;29;20569;-92
2023/07/30 07:04:45;;;;;;;7.78;1.75;;;18.10;99.90;;;;;;4835647;29;20046;-91
2023/07/30 07:07:11;;;;;;;6.45;1.60;;;18.10;99.90;;;;;;4841162;29;20041;-87
2023/07/30 07:09:37;;;;;;;5.40;1.50;;;18.10;99.90;;;;;;4838459;29;20040;-87
2023/07/30 07:12:03;;;;;;;6.72;1.58;;;18.40;99.90;;;;;;4845246;29;20052;-87
2023/07/30 07:14:32;;;;;;;6.45;1.73;;;18.80;99.90;;;;;;4843071;29;20054;-87
2023/07/30 07:16:58;;;;;;;5.13;1.35;;;19.20;99.90;;;;;;4839583;29;20773;-90
2023/07/30 07:19:24;;;;;;;6.00;1.48;;;19.60;99.90;;;;;;4825862;29;20794;-90
2023/07/30 07:21:58;;;;;;;6.10;1.65;;;20.10;99.90;;;;;;4832412;29;20105;-90
2023/07/30 07:24:27;;;;;;;4.95;1.50;;;20.90;99.90;;;;;;4826347;29;20045;-87
2023/07/30 07:27:09;;;;;;;4.18;1.42;;;21.70;99.90;;;;;;4827740;29;20127;-91
2023/07/30 07:29:38;;;;;;;4.72;1.55;;;21.60;99.90;;;;;;4815012;29;20063;-95
2023/07/30 07:32:25;;;;;;;4.68;1.65;;;22.10;99.90;;;;;;4805827;29;20091;-92
2023/07/30 07:34:57;;;;;;;5.15;1.42;;;22.30;99.90;;;;;;4823043;29;20490;-94
2023/07/30 07:37:48;;;;;;;4.60;1.65;;;22.80;99.90;;;;;;4831575;29;20485;-93
2023/07/30 07:40:17;;;;;;;3.67;1.30;;;23.00;99.90;;;;;;4838357;29;20162;-95
2023/07/30 07:42:53;;;;;;;;;;;;;;;;;;;;;
2023/07/30 07:45:25;;;;;;;5.28;1.52;;;22.70;99.90;;;;;;4843946;29;20061;-95
2023/07/30 07:47:51;;;;;;;3.45;1.10;;;22.60;99.90;;;;;;4829667;29;20050;-93
2023/07/30 07:50:20;;;;;;;4.10;1.20;;;23.20;99.90;;;;;;4810051;29;20034;-91
2023/07/30 07:52:45;;;;;;;5.60;1.40;;;23.80;99.90;;;;;;4814045;29;20543;-91
2023/07/30 07:55:19;;;;;;;6.50;1.40;;;24.10;99.90;;;;;;4826525;29;20435;-91
2023/07/30 07:57:45;;;;;;;4.95;1.52;;;24.10;99.90;;;;;;4810215;29;20080;-93
2023/07/30 08:00:11;;;;;;;4.45;1.38;;;24.00;99.90;;;;;;4827687;29;20061;-90
2023/07/30 08:02:43;;;;;;;4.37;1.20;;;24.10;99.90;;;;;;4827283;29;20054;-94
2023/07/30 08:05:09;;;;;;;4.20;1.15;;;24.00;99.90;;;;;;4827848;29;20033;-92
2023/07/30 08:07:34;;;;;;;4.00;1.20;;;23.60;99.90;;;;;;4822203;29;20540;-94
2023/07/30 08:10:00;;;;;;;3.73;1.10;;;22.80;99.90;;;;;;4813201;29;20088;-94
2023/07/30 08:12:32;;;;;;;5.20;1.13;;;22.20;99.90;;;;;;4809409;29;20041;-94
2023/07/30 08:14:58;;;;;;;5.63;1.20;;;21.60;99.90;;;;;;4837968;29;20042;-96
2023/07/30 08:17:25;;;;;;;4.60;1.47;;;21.10;99.90;;;;;;4844660;29;20384;-96
2023/07/30 08:19:54;;;;;;;3.03;1.00;;;20.80;99.90;;;;;;4828247;29;20491;-96
2023/07/30 08:23:13;;;;;;;5.05;1.42;;;20.50;99.90;;;;;;4828299;29;20485;-95
2023/07/30 08:25:55;;;;;;;6.60;1.30;;;20.20;99.90;;;;;;4848062;29;20049;-93
2023/07/30 08:28:21;;;;;;;3.50;0.90;;;19.70;99.90;;;;;;4832441;29;20118;-94
2023/07/30 08:30:50;;;;;;;5.05;1.33;;;19.80;99.90;;;;;;4823918;29;20485;-93
2023/07/30 08:33:29;;;;;;;5.07;1.35;;;19.70;99.90;;;;;;4830264;29;20102;-89
2023/07/30 08:36:40;;;;;;;5.13;1.33;;;19.60;99.90;;;;;;4828487;29;20415;-90
2023/07/30 08:39:15;;;;;;;6.10;1.40;;;19.50;99.90;;;;;;4813761;29;20041;-94
2023/07/30 08:41:41;;;;;;;3.72;0.80;;;19.60;99.90;;;;;;4829127;29;20046;-91
2023/07/30 08:44:08;;;;;;;5.85;1.40;;;19.60;99.90;;;;;;4837453;29;20042;-91
2023/07/30 08:46:37;;;;;;;4.28;1.23;;;19.50;99.90;;;;;;4825969;29;20049;-89
2023/07/30 08:49:03;;;;;;;3.30;1.00;;;19.40;99.90;;;;;;4822827;29;20053;-90
2023/07/30 08:51:31;;;;;;;7.32;1.45;;;19.30;99.90;;;;;;4822154;29;20466;-88
2023/07/30 08:54:23;;;;;;;4.63;1.13;;;18.90;99.90;;;;;;4807146;29;20603;-90
2023/07/30 08:56:49;;;;;;;4.43;1.20;;;19.20;99.90;;;;;;4841270;29;20037;-89
2023/07/30 08:59:18;;;;;;;4.57;1.40;;;19.00;99.90;;;;;;4843329;29;20045;-90
2023/07/30 09:01:50;;;;;;;6.43;1.35;;;19.00;99.90;;;;;;4828037;29;20259;-92
2023/07/30 09:04:18;;;;;;;4.03;0.98;;;19.00;99.90;;;;;;4834978;29;20121;-90
2023/07/30 09:06:43;;;;;;;;;;;18.80;99.90;;;;;;4805996;29;20052;-90
2023/07/30 09:09:13;;;;;;;3.60;1.02;;;19.10;99.90;;;;;;4803177;29;19920;-90
2023/07/30 09:11:39;;;;;;;3.25;1.05;;;19.20;99.90;;;;;;4827142;29;20041;-90
2023/07/30 09:14:06;;;;;;;3.35;0.93;;;19.40;99.90;;;;;;4814362;29;20049;-90
2023/07/30 09:16:42;;;;;;;;;;;;;;;;;;;;;
2023/07/30 09:19:08;;;;;;;4.97;1.17;;;19.40;99.90;;;;;;4851141;29;20092;-91
2023/07/30 09:21:34;;;;;;;4.60;0.95;;;19.60;99.90;;;;;;4811012;29;20451;-89
2023/07/30 09:24:05;;;;;;;4.63;1.47;;;19.60;99.90;;;;;;4815507;29;20158;-88
2023/07/30 09:26:49;;;;;;;2.53;0.80;;;19.60;99.90;;;;;;4829756;29;20052;-93
2023/07/30 09:29:15;;;;;;;5.18;0.88;;;19.50;99.90;;;;;;4825316;29;20045;-90
2023/07/30 09:32:49;;;;;;;5.38;1.08;;;19.40;99.90;;;;;;4818582;29;20091;-91
2023/07/30 09:35:19;;;;;;;5.50;1.30;;;19.20;99.90;;;;;;4832411;29;20049;-86
2023/07/30 09:37:45;;;;;;;3.33;1.08;;;19.00;99.90;;;;;;4838687;29;20107;-85
2023/07/30 09:40:14;;;;;;;4.67;1.07;;;18.90;99.90;;;;;;4824474;29;20057;-86
2023/07/30 09:42:48;;;;;;;4.43;1.00;;;18.60;99.90;;;;;;4840558;29;20135;-86
2023/07/30 09:45:19;;;;;;;3.47;0.80;;;18.80;99.90;;;;;;4819010;29;20046;-87
2023/07/30 09:47:50;;;;;;;5.60;1.10;;;18.80;99.90;;;;;;4842429;29;20041;-86
2023/07/30 09:50:18;;;;;;;3.17;0.93;;;18.90;99.90;;;;;;4815236;29;20038;-92
2023/07/30 09:52:45;;;;;;;3.65;0.80;;;18.90;99.90;;;;;;4825437;29;20038;-90
2023/07/30 09:55:11;;;;;;;4.18;0.90;;;18.90;99.90;;;;;;4839134;29;20132;-90
2023/07/30 09:57:38;;;;;;;4.18;0.80;;;18.90;99.90;;;;;;4829675;29;20053;-93
2023/07/30 10:00:11;;;;;;;2.60;0.80;;;19.00;99.90;;;;;;4837342;29;20042;-91
2023/07/30 10:02:39;;;;;;;3.80;0.80;;;19.10;99.90;;;;;;4823511;29;20050;-92
2023/07/30 10:05:12;;;;;;;6.57;1.13;;;19.20;99.90;;;;;;4828761;29;20049;-91
2023/07/30 10:07:42;;;;;;;5.25;1.00;;;19.30;99.90;;;;;;4842489;29;20144;-92
2023/07/30 10:10:09;;;;;;;3.00;0.70;;;19.40;99.90;;;;;;4843348;29;20059;-88
2023/07/30 10:12:36;;;;;;;3.50;0.95;;;19.40;99.90;;;;;;4834096;29;20090;-90
2023/07/30 10:18:42;;;;;;;2.58;0.90;;;19.40;99.90;;;;;;4781818;29;20046;-89
2023/07/30 10:32:39;;;;;;;3.95;0.88;;;20.10;99.90;;;;;;4768807;30;20078;-93
2023/07/30 10:35:05;;;;;;;3.33;0.88;;;20.50;99.90;;;;;;4781114;29;20053;-89
2023/07/30 10:41:18;;;;;;;4.03;0.70;;;21.10;99.90;;;;;;4852529;29;20089;-90
2023/07/30 10:43:49;;;;;;;2.72;0.90;;;21.20;99.90;;;;;;4819988;29;20103;-92
2023/07/30 10:46:17;;;;;;;3.92;0.75;;;21.10;99.90;;;;;;4841507;29;20493;-91
2023/07/30 10:48:44;;;;;;;1.48;0.50;;;20.90;99.90;;;;;;4826103;29;20045;-90
2023/07/30 10:51:15;;;;;;;3.38;0.70;;;20.50;99.90;;;;;;4828195;29;20057;-92
2023/07/30 10:53:49;;;;;;;2.28;0.50;;;20.30;99.90;;;;;;4830653;29;20055;-90
2023/07/30 10:56:23;;;;;;;2.97;0.90;;;20.20;99.90;;;;;;4825978;29;20055;-92
2023/07/30 10:58:51;;;;;;;2.80;0.93;;;20.40;99.90;;;;;;4846008;29;20120;-91
2023/07/30 11:01:17;;;;;;;3.47;0.88;;;20.60;99.90;;;;;;4833314;29;20045;-90
2023/07/30 11:03:43;;;;;;;2.75;0.65;;;20.80;99.90;;;;;;4817909;29;20063;-90
2023/07/30 11:06:20;;;;;;;2.42;0.80;;;20.90;99.90;;;;;;4818064;29;20041;-91
2023/07/30 11:08:46;;;;;;;4.82;1.08;;;21.00;99.90;;;;;;4820930;29;20049;-91
2023/07/30 11:11:35;;;;;;;4.00;0.85;;;21.30;99.90;;;;;;4831007;29;20068;-92
2023/07/30 11:14:03;;;;;;;3.78;0.80;;;21.60;99.90;;;;;;4825793;29;20464;-91
2023/07/30 11:16:29;;;;;;;3.85;0.88;;;21.80;99.90;;;;;;4829363;29;20132;-92
2023/07/30 11:18:56;;;;;;;3.55;0.55;;;22.10;99.90;;;;;;4815040;29;20081;-92
2023/07/30 11:21:21;;;;;;;3.30;0.82;;;22.30;99.90;;;;;;4830190;29;20044;-92
2023/07/30 11:23:50;;;;;;;2.72;1.10;;;22.30;99.90;;;;;;4842897;29;20062;-93
2023/07/30 11:26:22;;;;;;;2.78;0.80;;;22.30;99.90;;;;;;4836878;29;20093;-92
2023/07/30 11:28:56;;;;;;;6.32;1.10;;;22.40;99.90;;;;;;4845155;29;20063;-93
2023/07/30 11:31:27;;;;;;;3.60;1.15;;;22.50;99.90;;;;;;4828949;29;20747;-94
2023/07/30 11:33:53;;;;;;;3.40;1.00;;;22.30;99.90;;;;;;4841495;29;20042;-94
2023/07/30 11:36:21;;;;;;;4.20;1.07;;;22.30;99.90;;;;;;4814854;29;20064;-94
2023/07/30 11:38:56;;;;;;;5.13;0.90;;;22.20;99.90;;;;;;4838935;29;20575;-90
2023/07/30 11:41:24;;;;;;;5.35;0.88;;;22.20;99.90;;;;;;4805833;29;21035;-92
2023/07/30 11:43:51;;;;;;;5.68;1.25;;;22.20;99.90;;;;;;4733348;29;20050;-95
2023/07/30 11:46:22;;;;;;;4.78;1.40;;;22.30;99.90;;;;;;4794768;29;20042;-90
2023/07/30 11:48:52;;;;;;;2.92;0.80;;;22.10;99.90;;;;;;4810003;29;20066;-92
2023/07/30 11:51:28;;;;;;;3.10;1.17;;;22.00;99.90;;;;;;4787839;29;20125;-94
2023/07/30 11:53:56;;;;;;;5.20;1.00;;;21.90;99.90;;;;;;4808269;29;20120;-91
2023/07/30 11:56:29;;;;;;;4.78;0.98;;;21.90;99.90;;;;;;4836907;29;20403;-93
2023/07/30 11:58:59;;;;;;;4.68;0.80;;;21.90;99.90;;;;;;4836408;29;20042;-92
2023/07/30 12:09:58;;;;;;;4.13;1.10;;;21.50;99.90;;;;;;4813778;29;20111;-92
2023/07/30 12:12:46;;;;;;;3.42;0.80;;;21.40;99.90;;;;;;4788161;29;20050;-92
2023/07/30 12:15:15;;;;;;;4.80;1.20;;;21.10;99.90;;;;;;4839246;29;20042;-94
2023/07/30 12:17:44;;;;;;;4.03;0.90;;;20.90;99.90;;;;;;4793302;29;20058;-93
2023/07/30 12:21:10;;;;;;;;;;;;;;;;;;;;;
2023/07/30 12:24:03;;;;;;;5.68;1.17;;;20.50;99.90;;;;;;4798975;29;21398;-92
2023/07/30 12:27:32;;;;;;;5.10;1.52;;;20.50;99.90;;;;;;4796656;29;20097;-96
2023/07/30 12:30:27;;;;;;;2.88;0.77;;;20.40;99.90;;;;;;4774550;29;20076;-96
2023/07/30 12:36:08;;;;;;;3.00;0.70;;;20.40;99.90;;;;;;4827701;29;20046;-95
2023/07/30 12:38:53;;;;;;;1.67;0.57;;;20.50;99.90;;;;;;4815679;29;20467;-95
2023/07/30 12:41:25;;;;;;;2.90;0.80;;;20.60;99.90;;;;;;4806062;29;20049;-95
2023/07/30 12:58:44;;;;;;;3.97;0.85;;;20.70;99.90;;;;;;4839217;29;20040;-94
2023/07/30 13:01:32;;;;;;;2.22;0.90;;;20.60;99.90;;;;;;4839351;29;20041;-94
2023/07/30 13:03:58;;;;;;;3.63;0.93;;;20.80;99.90;;;;;;4806273;29;20066;-93
2023/07/30 13:06:23;;;;;;;4.35;1.10;;;20.80;99.90;;;;;;4795918;29;20045;-94
2023/07/30 13:08:49;;;;;;;2.85;0.98;;;20.80;99.90;;;;;;4808491;29;20046;-92
2023/07/30 13:11:15;;;;;;;5.22;1.23;;;20.70;99.90;;;;;;4818360;29;20053;-93
2023/07/30 13:13:41;;;;;;;3.70;0.90;;;20.70;99.90;;;;;;4801438;29;20106;-94
2023/07/30 13:16:07;;;;;;;5.43;0.90;;;20.70;99.90;;;;;;4822386;29;20050;-95
2023/07/30 13:18:32;;;;;;;2.53;0.50;;;20.70;99.90;;;;;;4807410;29;20546;-94
2023/07/30 13:20:58;;;;;;;3.55;0.70;;;20.80;99.90;;;;;;4791272;29;20122;-95
2023/07/30 13:23:28;;;;;;;2.00;0.60;;;20.90;99.90;;;;;;4820397;29;20047;-94
2023/07/30 13:25:54;;;;;;;2.85;0.55;;;20.90;99.90;;;;;;4820884;29;20066;-93
2023/07/30 13:28:20;;;;;;;3.40;0.60;;;20.90;99.90;;;;;;4802941;29;20050;-92
2023/07/30 13:30:46;;;;;;;1.63;0.47;;;20.80;99.90;;;;;;4780786;29;20039;-93
2023/07/30 13:33:12;;;;;;;5.03;0.73;;;20.80;99.90;;;;;;4799930;29;20038;-93
2023/07/30 13:35:38;;;;;;;2.85;0.85;;;20.70;99.90;;;;;;4791181;29;20074;-94
2023/07/30 13:38:04;;;;;;;3.50;0.73;;;20.70;99.90;;;;;;4837013;29;20125;-94
2023/07/30 13:40:29;;;;;;;3.15;0.80;;;20.70;99.90;;;;;;4798252;29;20555;-94
2023/07/30 13:42:55;;;;;;;2.97;0.85;;;20.70;99.90;;;;;;4791537;29;20070;-95
2023/07/30 13:45:21;;;;;;;4.18;0.70;;;20.70;99.90;;;;;;4805803;29;20047;-94
2023/07/30 13:47:47;;;;;;;4.95;0.98;;;20.70;99.90;;;;;;4806601;29;20081;-94